Time;durP1;ratioP1;P1;durP2;ratioP2;P2;SDS_P1;SDS_P2;PMS_P1;PMS_P2;Temp;Humidity;BMP_temperature;BMP_pressure;BME280_temperature;BME280_humidity;BME280_pressure;Samples;Min_cycle;Max_cycle;Signal;HPM_P1;HPM_P2
2022/05/25 00:01:46;;;;;;;;;2.00;1.00;;;;;13.55;63.43;100835.22;5110646;27;45280;-83
2022/05/25 00:04:11;;;;;;;;;0.50;0.50;;;;;13.96;63.88;100909.25;5103378;27;47381;-83
2022/05/25 00:06:37;;;;;;;;;1.75;1.00;;;;;13.61;63.90;100859.13;5108662;27;45230;-84
2022/05/25 00:09:04;;;;;;;;;2.00;2.00;;;;;13.79;63.56;100881.53;5119260;27;45158;-83
2022/05/25 00:11:29;;;;;;;;;0.50;0.50;;;;;14.04;63.57;100912.97;5120810;27;46574;-83
2022/05/25 00:13:55;;;;;;;;;0.00;0.00;;;;;14.06;63.51;100910.38;5107322;27;45847;-84
2022/05/25 00:16:20;;;;;;;;;0.50;0.50;;;;;13.65;63.50;100846.91;5115884;27;46133;-83
2022/05/25 00:21:30;;;;;;;;;1.00;1.00;;;;;14.08;63.16;100900.72;5106955;27;45153;-83
2022/05/25 00:23:56;;;;;;;;;1.00;1.00;;;;;13.37;63.20;100781.97;5125923;27;45940;-86
2022/05/25 00:26:22;;;;;;;;;1.00;1.00;;;;;13.78;63.60;100858.63;5124548;27;45416;-82
2022/05/25 00:28:47;;;;;;;;;1.00;1.00;;;;;13.71;63.51;100843.50;5104570;27;45179;-84
2022/05/25 00:31:14;;;;;;;;;1.00;1.00;;;;;13.76;63.68;100861.25;5105564;27;45069;-85
2022/05/25 00:33:39;;;;;;;;;0.25;0.25;;;;;13.60;63.41;100843.25;5113518;27;45757;-83
2022/05/25 00:36:05;;;;;;;;;1.00;1.00;;;;;13.52;63.87;100828.97;5120440;27;45392;-84
2022/05/25 00:38:30;;;;;;;;;1.00;1.00;;;;;13.64;63.72;100853.00;5100921;27;45302;-82
2022/05/25 00:40:57;;;;;;;;;1.00;1.00;;;;;13.59;63.99;100858.16;5096877;27;45049;-83
2022/05/25 00:43:22;;;;;;;;;1.00;1.00;;;;;13.29;64.18;100813.44;5093981;27;47530;-86
2022/05/25 00:45:55;;;;;;;;;1.50;1.50;;;;;12.95;63.94;100765.91;5104421;27;45422;-84
2022/05/25 00:48:33;;;;;;;;;1.75;1.75;;;;;13.36;64.00;100843.53;5119248;27;45111;-84
2022/05/25 00:51:14;;;;;;;;;1.00;1.00;;;;;13.45;64.24;100864.91;5112569;27;45251;-84
2022/05/25 00:53:54;;;;;;;;;2.00;2.00;;;;;13.74;64.40;100926.31;5121911;27;46055;-87
2022/05/25 00:56:23;;;;;;;;;1.75;1.75;;;;;12.85;64.28;100772.72;5120018;27;45351;-83
2022/05/25 00:58:56;;;;;;;;;2.00;2.00;;;;;13.31;64.36;100856.63;5128599;27;45256;-88
2022/05/25 01:01:21;;;;;;;;;1.50;1.00;;;;;12.74;64.58;100772.44;5091496;27;45242;-82
2022/05/25 01:03:47;;;;;;;;;1.50;1.25;;;;;13.14;64.65;100864.06;5112137;27;45453;-82
2022/05/25 01:06:22;;;;;;;;;1.00;1.00;;;;;13.18;64.68;100873.84;5125823;27;45273;-84
2022/05/25 01:08:59;;;;;;;;;3.00;2.00;;;;;13.55;64.64;100929.41;5097062;27;45352;-84
2022/05/25 01:11:28;;;;;;;;;1.25;1.25;;;;;13.53;64.65;100937.25;5117335;27;45533;-83
2022/05/25 01:14:03;;;;;;;;;1.25;1.00;;;;;13.32;64.81;100903.28;5104976;27;47058;-83
2022/05/25 01:17:03;;;;;;;;;1.00;1.00;;;;;12.95;64.58;100842.44;5112167;27;45546;-83
2022/05/25 01:20:13;;;;;;;;;1.00;1.00;;;;;13.39;65.00;100918.41;5109623;27;45216;-84
2022/05/25 01:23:10;;;;;;;;;1.00;1.00;;;;;13.53;65.18;100945.19;5090133;27;45428;-84
2022/05/25 01:25:58;;;;;;;;;0.00;0.00;;;;;12.63;64.97;100787.09;5105875;27;46061;-84
2022/05/25 01:28:58;;;;;;;;;0.50;0.25;;;;;12.91;64.70;100847.66;5091533;27;45546;-85
2022/05/25 01:31:45;;;;;;;;;1.00;1.00;;;;;13.07;65.19;100885.00;5105536;27;45076;-84
2022/05/25 01:34:33;;;;;;;;;0.50;0.50;;;;;12.66;64.94;100816.19;5090176;27;46046;-83
2022/05/25 01:37:01;;;;;;;;;0.75;0.75;;;;;13.47;65.12;100946.78;5095961;27;47534;-85
2022/05/25 01:39:31;;;;;;;;;0.00;0.00;;;;;13.43;65.30;100951.97;5101291;27;45189;-83
2022/05/25 01:42:05;;;;;;;;;0.00;0.00;;;;;13.41;65.42;100966.00;5090822;27;45394;-84
2022/05/25 01:44:38;;;;;;;;;0.50;0.00;;;;;13.13;65.50;100928.25;5093150;27;45264;-84
2022/05/25 01:47:11;;;;;;;;;1.00;1.00;;;;;12.85;65.83;100865.03;5095886;27;45373;-83
2022/05/25 01:49:55;;;;;;;;;0.00;0.00;;;;;13.44;65.76;100973.97;5091697;27;45661;-85
2022/05/25 01:52:28;;;;;;;;;0.75;0.00;;;;;13.22;65.85;100932.94;5111836;27;45308;-84
2022/05/25 01:54:58;;;;;;;;;1.00;1.00;;;;;12.83;65.41;100857.09;5096966;27;45384;-84
2022/05/25 01:57:29;;;;;;;;;0.75;0.75;;;;;12.97;65.81;100875.03;5106624;27;46111;-84
2022/05/25 01:59:54;;;;;;;;;1.00;1.00;;;;;13.00;65.74;100885.66;5096796;27;45519;-86
2022/05/25 02:05:09;;;;;;;;;1.00;1.00;;;;;12.84;65.47;100847.44;5091729;27;45331;-84
2022/05/25 02:07:53;;;;;;;;;0.00;0.00;;;;;13.54;65.63;100962.81;5094845;27;45445;-83
2022/05/25 02:11:11;;;;;;;;;0.75;0.75;;;;;13.31;65.60;100932.28;5096776;27;45848;-84
2022/05/25 02:14:16;;;;;;;;;1.50;1.00;;;;;13.28;65.49;100919.88;5085178;27;45508;-83
2022/05/25 02:16:59;;;;;;;;;1.00;0.00;;;;;13.54;65.64;100967.19;5108189;27;45530;-83
2022/05/25 02:19:37;;;;;;;;;1.00;1.00;;;;;13.20;65.39;100923.13;5108942;27;46654;-84
2022/05/25 02:22:06;;;;;;;;;1.00;1.00;;;;;12.70;65.16;100830.34;5110554;27;45530;-83
2022/05/25 02:24:40;;;;;;;;;0.25;0.25;;;;;12.68;65.44;100837.31;5112964;27;45412;-84
2022/05/25 02:27:15;;;;;;;;;1.50;1.00;;;;;13.43;65.67;100969.56;5119770;27;45290;-83
2022/05/25 02:29:47;;;;;;;;;1.00;1.00;;;;;13.17;64.90;100942.44;5111660;27;45491;-82
2022/05/25 02:32:32;;;;;;;;;0.75;0.75;;;;;13.01;65.41;100919.13;5123339;27;45494;-84
2022/05/25 02:34:58;;;;;;;;;1.50;1.50;;;;;13.00;65.51;100917.31;5091865;27;45136;-83
2022/05/25 02:37:26;;;;;;;;;0.00;0.00;;;;;13.43;65.95;100977.47;5123893;27;45103;-85
2022/05/25 02:39:54;;;;;;;;;1.00;1.00;;;;;13.23;65.92;100947.00;5122822;27;46157;-84
2022/05/25 02:42:19;;;;;;;;;1.00;1.00;;;;;13.20;65.73;100931.06;5091124;27;45444;-86
2022/05/25 02:44:45;;;;;;;;;0.00;0.00;;;;;12.93;65.92;100883.72;5111571;27;44988;-87
2022/05/25 02:47:11;;;;;;;;;1.00;1.00;;;;;13.43;65.81;100975.72;5109979;27;45178;-84
2022/05/25 02:49:37;;;;;;;;;1.75;1.00;;;;;12.77;65.94;100870.13;5109681;27;45408;-82
2022/05/25 02:52:05;;;;;;;;;1.00;1.00;;;;;13.18;66.03;100970.59;5103978;27;45184;-82
2022/05/25 02:54:30;;;;;;;;;1.00;1.00;;;;;12.92;66.04;100922.41;5115178;27;45189;-83
2022/05/25 02:56:55;;;;;;;;;1.00;1.00;;;;;12.79;66.05;100902.69;5090012;27;45894;-83
2022/05/25 02:59:21;;;;;;;;;1.00;1.00;;;;;13.36;65.88;101009.84;5110370;27;46340;-84
2022/05/25 03:01:46;;;;;;;;;1.25;1.25;;;;;12.72;66.04;100891.94;5106810;27;45067;-86
2022/05/25 03:04:12;;;;;;;;;1.25;1.00;;;;;12.69;65.97;100910.31;5118712;27;45103;-83
2022/05/25 03:06:37;;;;;;;;;1.00;1.00;;;;;12.84;66.13;100947.66;5113630;27;45653;-84
2022/05/25 03:09:03;;;;;;;;;1.00;1.00;;;;;12.85;66.40;100949.44;5089553;27;47328;-84
2022/05/25 03:11:28;;;;;;;;;1.00;1.00;;;;;12.85;66.27;100968.78;5114077;27;44954;-84
2022/05/25 03:13:54;;;;;;;;;1.00;1.00;;;;;12.33;66.42;100889.94;5121152;27;45085;-86
2022/05/25 03:16:20;;;;;;;;;2.50;2.50;;;;;12.46;66.62;100920.16;5110161;27;45204;-83
2022/05/25 03:18:52;;;;;;;;;1.00;0.50;;;;;12.87;66.69;101009.31;5090433;27;46275;-83
2022/05/25 03:21:19;;;;;;;;;1.00;1.00;;;;;12.57;67.09;100968.84;5088838;27;45381;-82
2022/05/25 03:23:44;;;;;;;;;2.00;2.00;;;;;12.28;66.70;100899.44;5127867;27;45035;-84
2022/05/25 03:26:10;;;;;;;;;2.00;2.00;;;;;12.29;66.98;100904.75;5110745;27;45512;-86
2022/05/25 03:28:36;;;;;;;;;1.75;1.75;;;;;12.49;66.96;100955.44;5089310;27;47026;-84
2022/05/25 03:31:02;;;;;;;;;1.00;1.00;;;;;12.72;66.83;101016.78;5100363;27;45806;-83
2022/05/25 03:33:28;;;;;;;;;1.00;1.00;;;;;12.34;67.00;100944.44;5093751;27;45214;-83
2022/05/25 03:35:53;;;;;;;;;2.00;1.25;;;;;12.33;67.07;100951.44;5119102;27;45158;-85
2022/05/25 03:38:19;;;;;;;;;1.00;1.00;;;;;12.40;67.50;100968.31;5115380;27;46870;-83
2022/05/25 03:40:45;;;;;;;;;1.00;1.00;;;;;12.48;67.18;100985.28;5127156;27;46910;-82
2022/05/25 03:43:14;;;;;;;;;1.00;1.00;;;;;12.47;67.32;100998.44;5115741;27;45488;-86
2022/05/25 03:45:40;;;;;;;;;2.00;1.75;;;;;12.64;67.32;101028.81;5114481;27;45148;-84
2022/05/25 03:48:07;;;;;;;;;1.00;1.00;;;;;12.77;67.48;101051.22;5109586;27;46096;-83
2022/05/25 03:50:38;;;;;;;;;2.00;1.00;;;;;12.45;67.85;100997.47;5113454;27;45239;-82
2022/05/25 03:53:04;;;;;;;;;1.00;1.00;;;;;12.85;67.39;101066.41;5113725;27;45154;-83
2022/05/25 03:55:33;;;;;;;;;2.50;2.00;;;;;12.28;67.40;100974.13;5131430;27;45162;-83
2022/05/25 03:57:59;;;;;;;;;0.50;0.50;;;;;12.36;67.56;100984.88;5112642;27;45309;-83
2022/05/25 04:00:24;;;;;;;;;1.00;1.00;;;;;12.55;67.46;101023.28;5121329;27;45112;-83
2022/05/25 04:02:49;;;;;;;;;1.00;1.00;;;;;12.06;67.23;100942.66;5100889;27;46233;-82
2022/05/25 04:05:15;;;;;;;;;1.50;1.00;;;;;12.49;67.23;101021.34;5123265;27;45130;-83
2022/05/25 04:07:43;;;;;;;;;2.00;2.00;;;;;12.93;67.02;101084.22;5103173;27;46407;-83
2022/05/25 04:10:13;;;;;;;;;1.00;1.00;;;;;12.97;67.27;101087.00;5112726;27;45394;-83
2022/05/25 04:12:42;;;;;;;;;2.00;1.00;;;;;12.60;66.91;101021.66;5109965;27;45267;-84
2022/05/25 04:15:10;;;;;;;;;1.00;1.00;;;;;12.15;67.22;100929.78;5101474;27;45199;-82
2022/05/25 04:17:36;;;;;;;;;1.50;1.50;;;;;12.74;67.08;101051.09;5113116;27;47237;-85
2022/05/25 04:20:04;;;;;;;;;1.00;1.00;;;;;12.59;66.99;101019.88;5112498;27;45254;-84
2022/05/25 04:22:32;;;;;;;;;3.00;2.50;;;;;12.31;67.05;100981.22;5102120;27;46005;-82
2022/05/25 04:25:01;;;;;;;;;3.00;2.00;;;;;12.09;66.92;100946.31;5105178;27;45110;-82
2022/05/25 04:27:27;;;;;;;;;1.75;1.00;;;;;12.25;67.19;100973.13;5104080;27;47344;-84
2022/05/25 04:29:53;;;;;;;;;2.00;2.00;;;;;12.67;66.94;101046.50;5097932;27;46178;-82
2022/05/25 04:32:21;;;;;;;;;3.00;2.00;;;;;12.64;67.22;101045.53;5111721;27;45373;-85
2022/05/25 04:34:46;;;;;;;;;1.00;1.00;;;;;12.57;67.30;101040.94;5118913;27;45161;-83
2022/05/25 04:39:56;;;;;;;;;5.75;2.00;;;;;12.53;66.91;101033.78;5102172;27;45472;-85
2022/05/25 04:42:21;;;;;;;;;2.25;2.25;;;;;12.49;67.40;101037.16;5084460;27;45852;-85
2022/05/25 04:44:46;;;;;;;;;1.00;1.00;;;;;12.53;67.23;101024.97;5089193;27;45644;-86
2022/05/25 04:47:13;;;;;;;;;2.50;2.50;;;;;12.62;67.23;101030.53;5087297;27;48041;-84
2022/05/25 04:49:44;;;;;;;;;2.75;2.75;;;;;12.65;67.10;101038.53;5080635;27;46624;-87
2022/05/25 04:52:11;;;;;;;;;1.50;1.00;;;;;12.88;66.98;101068.25;5078098;27;45521;-84
2022/05/25 04:54:36;;;;;;;;;1.00;1.00;;;;;12.82;66.97;101065.44;5089094;27;45703;-84
2022/05/25 04:57:20;;;;;;;;;1.25;1.25;;;;;12.75;66.70;101056.41;5118180;27;45710;-87
2022/05/25 04:59:51;;;;;;;;;3.50;2.00;;;;;12.80;66.92;101060.09;5099451;27;45573;-84
2022/05/25 05:02:17;;;;;;;;;2.00;2.00;;;;;13.24;67.17;101123.00;5106842;27;45073;-84
2022/05/25 05:04:43;;;;;;;;;3.00;2.00;;;;;12.94;67.12;101075.44;5124280;27;45477;-85
2022/05/25 05:07:09;;;;;;;;;1.25;1.25;;;;;12.46;66.60;100991.34;5096070;27;48001;-84
2022/05/25 05:09:36;;;;;;;;;2.00;2.00;;;;;12.68;66.70;101011.38;5110677;27;44977;-86
2022/05/25 05:12:02;;;;;;;;;3.00;2.50;;;;;12.76;66.49;101033.56;5110331;27;45115;-85
2022/05/25 05:14:27;;;;;;;;;1.25;1.25;;;;;13.07;66.37;101077.63;5108149;27;45393;-83
2022/05/25 05:17:03;;;;;;;;;2.75;2.75;;;;;13.26;66.65;101098.47;5064193;27;47156;-86
2022/05/25 05:19:29;;;;;;;;;1.50;1.50;;;;;12.97;66.67;101046.53;5092188;27;46002;-84
2022/05/25 05:21:55;;;;;;;;;3.00;3.00;;;;;13.29;66.43;101110.84;5097052;27;45173;-85
2022/05/25 05:24:24;;;;;;;;;2.25;2.25;;;;;13.26;66.38;101100.22;5089912;27;45361;-84
2022/05/25 05:26:50;;;;;;;;;2.00;2.00;;;;;13.10;66.52;101064.50;5091522;27;47807;-84
2022/05/25 05:29:16;;;;;;;;;2.00;2.00;;;;;13.25;66.27;101091.41;5110975;27;45216;-85
2022/05/25 05:31:41;;;;;;;;;2.50;2.25;;;;;13.30;66.65;101084.50;5099385;27;45131;-84
2022/05/25 05:34:07;;;;;;;;;4.00;3.00;;;;;13.45;66.45;101107.81;5107276;27;45332;-87
2022/05/25 05:36:54;;;;;;;;;2.50;2.50;;;;;13.58;66.29;101122.25;5111996;27;47079;-87
2022/05/25 05:39:23;;;;;;;;;3.25;2.50;;;;;12.99;66.52;101016.69;5107034;27;45710;-85
2022/05/25 05:42:12;;;;;;;;;2.00;2.00;;;;;13.36;66.35;101076.75;5117747;27;45206;-88
2022/05/25 05:44:47;;;;;;;;;1.50;1.50;;;;;13.59;66.60;101097.63;5111144;27;45140;-90
2022/05/25 05:47:18;;;;;;;;;2.00;2.00;;;;;13.37;66.49;101052.13;5108650;27;46213;-86
2022/05/25 05:49:44;;;;;;;;;4.00;4.00;;;;;13.58;65.77;101077.34;5110358;27;45284;-85
2022/05/25 05:52:10;;;;;;;;;4.00;3.00;;;;;13.55;65.73;101051.75;5113295;27;45187;-85
2022/05/25 05:54:38;;;;;;;;;3.00;2.25;;;;;13.91;65.93;101109.97;5091806;27;45142;-86
2022/05/25 05:57:04;;;;;;;;;3.00;3.00;;;;;13.96;66.50;101120.66;5091994;27;47978;-85
2022/05/25 05:59:29;;;;;;;;;2.00;2.00;;;;;13.89;65.81;101097.53;5104662;27;45252;-84
2022/05/25 06:01:55;;;;;;;;;3.00;2.25;;;;;13.91;66.08;101085.28;5110595;27;45227;-86
2022/05/25 06:04:22;;;;;;;;;2.00;1.75;;;;;14.04;66.51;101087.41;5112756;27;45095;-85
2022/05/25 06:06:47;;;;;;;;;2.75;2.75;;;;;13.88;66.27;101056.13;5111918;27;47498;-85
2022/05/25 06:09:13;;;;;;;;;3.00;3.00;;;;;14.21;66.11;101111.63;5111924;27;45244;-85
2022/05/25 06:11:41;;;;;;;;;1.00;1.00;;;;;13.77;66.39;101020.63;5113415;27;45147;-86
2022/05/25 06:14:07;;;;;;;;;2.00;2.00;;;;;13.76;65.13;101013.56;5110012;27;45103;-87
2022/05/25 06:19:33;;;;;;;;;3.75;3.00;;;;;14.04;65.06;101054.78;5123724;27;45514;-89
2022/05/25 06:22:00;;;;;;;;;3.25;3.25;;;;;14.35;64.54;101099.66;5128563;27;45022;-85
2022/05/25 06:24:27;;;;;;;;;1.75;1.75;;;;;14.40;64.52;101100.66;5097992;27;45231;-86
2022/05/25 06:26:52;;;;;;;;;3.00;3.00;;;;;14.44;64.19;101115.75;5098158;27;47223;-85
2022/05/25 06:29:19;;;;;;;;;2.00;2.00;;;;;14.29;64.25;101085.41;5111997;27;45020;-85
2022/05/25 06:31:44;;;;;;;;;2.25;2.00;;;;;14.12;63.89;101045.31;5111198;27;45211;-86
2022/05/25 06:34:10;;;;;;;;;2.50;2.50;;;;;14.76;64.12;101157.97;5111830;27;45218;-85
2022/05/25 06:36:36;;;;;;;;;2.00;2.00;;;;;14.32;63.94;101080.16;5111475;27;47137;-86
2022/05/25 06:39:01;;;;;;;;;2.00;2.00;;;;;14.62;64.50;101122.34;5111240;27;45478;-86
2022/05/25 06:41:28;;;;;;;;;5.00;3.00;;;;;14.64;63.65;101126.84;5110928;27;45055;-86
2022/05/25 06:43:54;;;;;;;;;3.00;2.00;;;;;14.73;63.34;101136.75;5111465;27;45108;-85
2022/05/25 06:46:20;;;;;;;;;2.00;1.00;;;;;14.49;63.32;101091.19;5127843;27;45440;-85
2022/05/25 06:48:51;;;;;;;;;3.00;3.00;;;;;15.16;63.33;101207.47;5130123;27;45138;-86
2022/05/25 06:51:20;;;;;;;;;2.00;1.00;;;;;15.08;63.49;101181.69;5111558;27;45097;-86
2022/05/25 06:53:46;;;;;;;;;2.00;2.00;;;;;14.84;62.89;101155.53;5129678;27;45252;-85
2022/05/25 06:56:11;;;;;;;;;3.25;2.25;;;;;14.63;62.78;101126.78;5110047;27;47217;-86
2022/05/25 06:58:40;;;;;;;;;2.50;2.50;;;;;14.63;62.64;101124.13;5111506;27;45214;-86
2022/05/25 07:01:05;;;;;;;;;2.00;2.00;;;;;14.80;62.81;101148.38;5106521;27;45185;-86
2022/05/25 07:03:31;;;;;;;;;3.50;3.00;;;;;14.71;62.64;101127.88;5110823;27;45167;-87
2022/05/25 07:05:57;;;;;;;;;1.75;1.75;;;;;14.62;62.58;101103.84;5111185;27;45686;-89
2022/05/25 07:08:23;;;;;;;;;1.00;1.00;;;;;15.07;62.20;101162.22;5127215;27;45577;-86
2022/05/25 07:10:49;;;;;;;;;2.00;1.00;;;;;15.24;61.96;101183.81;5118895;27;45083;-86
2022/05/25 07:13:17;;;;;;;;;1.50;1.50;;;;;15.57;61.57;101230.47;5094382;27;45427;-85
2022/05/25 07:15:43;;;;;;;;;1.25;1.25;;;;;15.61;61.67;101219.94;5114240;27;45418;-88
2022/05/25 07:18:10;;;;;;;;;1.50;1.50;;;;;15.19;60.99;101159.00;5094234;27;45845;-88
2022/05/25 07:20:36;;;;;;;;;1.00;1.00;;;;;14.26;60.81;100975.16;5103505;27;45248;-87
2022/05/25 07:23:01;;;;;;;;;0.25;0.25;;;;;15.72;59.93;101236.13;5114610;27;45179;-87
2022/05/25 07:25:27;;;;;;;;;1.00;1.00;;;;;15.32;59.92;101165.44;5101670;27;47202;-87
2022/05/25 07:27:52;;;;;;;;;2.00;1.00;;;;;15.52;60.15;101206.53;5094747;27;45125;-87
2022/05/25 07:30:18;;;;;;;;;1.00;1.00;;;;;15.69;59.97;101221.03;5094427;27;45144;-87
2022/05/25 07:32:46;;;;;;;;;1.00;1.00;;;;;15.29;60.12;101158.34;5091332;27;45275;-87
2022/05/25 07:35:15;;;;;;;;;1.00;1.00;;;;;15.28;60.70;101158.31;5124667;27;46060;-86
2022/05/25 07:37:44;;;;;;;;;2.00;1.00;;;;;14.83;60.15;101098.19;5112484;27;45239;-85
2022/05/25 07:40:18;;;;;;;;;1.00;1.00;;;;;15.90;59.88;101256.81;5112518;27;45349;-86
2022/05/25 07:42:48;;;;;;;;;1.00;1.00;;;;;15.91;60.32;101245.34;5116655;27;45232;-90
2022/05/25 07:45:14;;;;;;;;;1.00;1.00;;;;;15.13;59.93;101097.97;5131039;27;45641;-88
2022/05/25 07:47:39;;;;;;;;;2.00;2.00;;;;;15.17;59.69;101099.78;5115980;27;45493;-88
2022/05/25 07:50:06;;;;;;;;;1.75;1.50;;;;;15.75;59.78;101207.03;5105649;27;45369;-91
2022/05/25 07:52:36;;;;;;;;;1.00;1.00;;;;;15.03;59.62;101061.56;5118138;27;44961;-91
2022/05/25 07:55:03;;;;;;;;;2.25;2.00;;;;;15.68;59.27;101158.31;5114440;27;47550;-91
2022/05/25 07:57:29;;;;;;;;;1.75;1.00;;;;;15.90;59.43;101203.81;5096794;27;45501;-87
2022/05/25 07:59:54;;;;;;;;;1.00;1.00;;;;;15.43;59.02;101114.50;5102069;27;45218;-85
2022/05/25 08:07:57;;;;;;;;;1.00;1.00;;;;;16.04;58.77;101228.84;5112483;27;45194;-84
2022/05/25 08:10:25;;;;;;;;;1.00;1.00;;;;;16.13;57.95;101257.31;5119107;27;45745;-84
2022/05/25 08:12:57;;;;;;;;;1.00;0.25;;;;;15.96;57.98;101223.41;5113456;27;45024;-83
2022/05/25 08:15:24;;;;;;;;;2.00;0.75;;;;;16.35;57.64;101283.38;5114660;27;45413;-87
2022/05/25 08:17:49;;;;;;;;;1.00;1.00;;;;;16.39;57.52;101286.97;5099840;27;45531;-85
2022/05/25 08:20:15;;;;;;;;;1.00;0.00;;;;;15.39;57.44;101099.41;5113767;27;45172;-85
2022/05/25 08:22:41;;;;;;;;;1.00;0.00;;;;;16.03;57.55;101208.50;5107818;27;45070;-86
2022/05/25 08:25:08;;;;;;;;;1.00;1.00;;;;;16.06;57.11;101195.31;5109978;27;46619;-86
2022/05/25 08:27:36;;;;;;;;;0.00;0.00;;;;;16.09;57.55;101194.44;5110484;27;45141;-89
2022/05/25 08:30:01;;;;;;;;;1.00;1.00;;;;;16.00;57.06;101166.00;5105191;27;45289;-87
2022/05/25 08:32:27;;;;;;;;;0.25;0.25;;;;;15.53;56.81;101073.19;5106232;27;45324;-86
2022/05/25 08:34:52;;;;;;;;;1.00;1.00;;;;;16.15;56.64;101173.34;5113030;27;45295;-87
2022/05/25 08:37:17;;;;;;;;;0.25;0.25;;;;;16.17;56.90;101166.34;5110062;27;45292;-87
2022/05/25 08:39:43;;;;;;;;;2.00;1.25;;;;;15.62;56.40;101078.69;5101509;27;45277;-86
2022/05/25 08:42:19;;;;;;;;;1.75;1.00;;;;;15.91;56.80;101113.72;5122616;27;45137;-86
2022/05/25 08:44:47;;;;;;;;;1.00;0.75;;;;;15.94;56.49;101119.06;5090912;28;47021;-86
2022/05/25 08:47:13;;;;;;;;;1.50;1.00;;;;;15.97;56.91;101110.28;5106290;27;45655;-87
2022/05/25 08:49:42;;;;;;;;;2.00;1.50;;;;;16.43;55.90;101196.88;5101965;27;45134;-86
2022/05/25 08:52:32;;;;;;;;;1.00;1.00;;;;;16.95;55.27;101268.59;5092726;27;45366;-87
2022/05/25 08:55:00;;;;;;;;;0.00;0.00;;;;;16.17;54.75;101124.78;5100618;27;47393;-87
2022/05/25 08:57:31;;;;;;;;;0.00;0.00;;;;;16.53;54.07;101182.00;5111831;27;45349;-86
2022/05/25 09:00:01;;;;;;;;;0.00;0.00;;;;;16.69;53.83;101194.66;5087798;27;45835;-87
2022/05/25 09:02:39;;;;;;;;;0.00;0.00;;;;;16.95;53.83;101231.41;5108465;27;45194;-82
2022/05/25 09:05:20;;;;;;;;;1.00;1.00;;;;;17.26;53.79;101280.59;5096985;27;47069;-80
2022/05/25 09:08:24;;;;;;;;;1.00;0.00;;;;;16.97;54.07;101217.28;5086805;27;45185;-81
2022/05/25 09:10:58;;;;;;;;;0.50;0.00;;;;;17.03;53.05;101214.72;5067386;27;44972;-80
2022/05/25 09:13:40;;;;;;;;;0.00;0.00;;;;;17.16;52.30;101249.47;5093384;27;45193;-81
2022/05/25 09:16:17;;;;;;;;;0.00;0.00;;;;;17.13;51.92;101234.34;5103688;27;46107;-81
2022/05/25 09:19:05;;;;;;;;;0.25;0.25;;;;;17.27;51.68;101272.66;5109119;27;45855;-81
2022/05/25 09:21:39;;;;;;;;;0.00;0.00;;;;;17.41;51.40;101283.50;5105322;27;45080;-81
2022/05/25 09:24:11;;;;;;;;;0.00;0.00;;;;;17.43;50.54;101281.75;5109976;27;45411;-80
2022/05/25 09:26:36;;;;;;;;;0.00;0.00;;;;;17.39;50.61;101273.69;5110980;27;46122;-81
2022/05/25 09:29:06;;;;;;;;;0.00;0.00;;;;;17.26;49.32;101240.75;5106760;27;45030;-81
2022/05/25 09:31:55;;;;;;;;;1.00;1.00;;;;;17.45;50.16;101266.72;5099281;27;45467;-81
2022/05/25 09:34:51;;;;;;;;;0.00;0.00;;;;;17.61;50.21;101272.28;5101129;27;45285;-79
2022/05/25 09:37:38;;;;;;;;;0.00;0.00;;;;;17.65;49.47;101274.09;5107068;27;48122;-87
2022/05/25 09:40:34;;;;;;;;;1.50;0.75;;;;;17.36;48.91;101225.84;5106477;27;45544;-84
2022/05/25 09:43:04;;;;;;;;;0.00;0.00;;;;;17.75;49.09;101284.03;5107150;27;45236;-80
2022/05/25 09:45:35;;;;;;;;;0.00;0.00;;;;;17.65;49.03;101256.38;5124484;27;45176;-80
2022/05/25 09:48:14;;;;;;;;;0.50;0.50;;;;;17.59;48.29;101237.69;5128562;27;45780;-80
2022/05/25 09:50:48;;;;;;;;;0.00;0.00;;;;;17.89;47.75;101271.81;5129349;27;45705;-80
2022/05/25 09:53:17;;;;;;;;;1.00;1.00;;;;;17.78;48.08;101250.41;5129068;27;45125;-82
2022/05/25 09:55:49;;;;;;;;;0.00;0.00;;;;;18.01;47.65;101281.72;5129619;27;45187;-82
2022/05/25 09:58:36;;;;;;;;;0.00;0.00;;;;;17.99;47.82;101268.41;5111175;27;47543;-81
2022/05/25 10:01:27;;;;;;;;;0.00;0.00;;;;;18.09;47.15;101285.38;5129819;27;46128;-81
2022/05/25 10:03:53;;;;;;;;;0.00;0.00;;;;;18.04;47.33;101266.69;5130305;27;44988;-81
2022/05/25 10:06:29;;;;;;;;;1.00;1.00;;;;;17.99;47.41;101254.22;5111453;27;45281;-81
2022/05/25 10:09:26;;;;;;;;;0.00;0.00;;;;;18.23;46.85;101289.09;5130649;27;45925;-81
2022/05/25 10:12:00;;;;;;;;;0.00;0.00;;;;;18.25;46.85;101276.69;5130601;27;45696;-81
2022/05/25 10:14:33;;;;;;;;;0.00;0.00;;;;;18.40;46.45;101291.06;5130670;27;45000;-81
2022/05/25 10:17:06;;;;;;;;;0.00;0.00;;;;;18.43;46.16;101277.78;5110732;27;45315;-80
2022/05/25 10:19:35;;;;;;;;;1.25;0.00;;;;;18.29;46.28;101246.59;5118523;27;45270;-81
2022/05/25 10:22:01;;;;;;;;;0.00;0.00;;;;;18.53;46.04;101283.22;5109298;27;45567;-80
2022/05/25 10:24:38;;;;;;;;;0.00;0.00;;;;;18.51;46.03;101279.63;5091856;27;45056;-81
2022/05/25 10:27:15;;;;;;;;;0.00;0.00;;;;;18.31;45.90;101228.84;5109915;27;45066;-81
2022/05/25 10:38:30;;;;;;;;;0.25;0.00;;;;;18.62;44.79;101257.53;5109380;27;45195;-81
2022/05/25 10:40:57;;;;;;;;;0.00;0.00;;;;;18.87;45.26;101288.03;5090494;27;46769;-82
2022/05/25 10:43:31;;;;;;;;;0.00;0.00;;;;;18.86;45.22;101280.91;5109166;27;45332;-81
2022/05/25 10:46:01;;;;;;;;;0.00;0.00;;;;;18.94;45.22;101279.19;5108701;27;44864;-81
2022/05/25 10:48:29;;;;;;;;;0.00;0.00;;;;;19.11;44.75;101288.22;5109836;27;45188;-81
2022/05/25 10:50:59;;;;;;;;;0.00;0.00;;;;;19.07;44.59;101260.69;5108650;27;45780;-81
2022/05/25 10:56:31;;;;;;;;;0.00;0.00;;;;;19.42;44.58;101277.81;5109863;27;45143;-80
2022/05/25 10:59:11;;;;;;;;;0.00;0.00;;;;;19.43;44.44;101264.47;5109378;27;45147;-81
2022/05/25 11:01:45;;;;;;;;;0.00;0.00;;;;;19.61;44.98;101269.09;5108320;27;45987;-82
2022/05/25 11:04:57;;;;;;;;;0.75;0.75;;;;;19.56;44.33;101247.69;5109176;27;45250;-80
2022/05/25 11:07:37;;;;;;;;;0.00;0.00;;;;;19.75;43.47;101269.13;5062924;27;45306;-82
2022/05/25 11:10:25;;;;;;;;;0.00;0.00;;;;;19.73;43.36;101262.91;5109368;27;45158;-83
2022/05/25 11:13:02;;;;;;;;;0.00;0.00;;;;;19.87;43.56;101271.00;5108510;27;46126;-80
2022/05/25 11:15:43;;;;;;;;;0.00;0.00;;;;;19.83;42.23;101278.09;5108800;27;45728;-80
2022/05/25 11:18:22;;;;;;;;;0.00;0.00;;;;;19.90;42.91;101281.66;5108917;27;45455;-80
2022/05/25 11:20:53;;;;;;;;;0.00;0.00;;;;;20.27;42.69;101277.38;5089813;27;45301;-80
2022/05/25 11:23:37;;;;;;;;;0.00;0.00;;;;;20.40;42.00;101240.94;5108736;27;45766;-80
2022/05/25 11:26:13;;;;;;;;;0.75;0.00;;;;;20.80;42.19;101279.31;5108564;27;45471;-80
2022/05/25 11:28:41;;;;;;;;;0.75;0.00;;;;;20.97;42.08;101282.00;5090552;27;45136;-82
2022/05/25 11:31:30;;;;;;;;;0.00;0.00;;;;;21.18;41.32;101262.38;5089657;27;45211;-81
2022/05/25 11:33:56;;;;;;;;;0.00;0.00;;;;;21.34;41.60;101277.59;5089813;27;47680;-80
2022/05/25 11:36:54;;;;;;;;;0.00;0.00;;;;;21.35;40.34;101279.34;5108777;27;45106;-81
2022/05/25 11:39:42;;;;;;;;;0.00;0.00;;;;;21.33;40.38;101271.34;5090484;27;45109;-82
2022/05/25 11:42:11;;;;;;;;;0.00;0.00;;;;;21.24;40.13;101273.09;5090000;27;45328;-81
2022/05/25 11:45:03;;;;;;;;;0.00;0.00;;;;;21.17;40.94;101269.53;5109181;27;45947;-81
2022/05/25 11:47:50;;;;;;;;;0.00;0.00;;;;;21.40;40.54;101265.97;5108615;27;45035;-81
2022/05/25 11:50:45;;;;;;;;;0.00;0.00;;;;;21.37;41.66;101229.41;5108616;27;45107;-81
2022/05/25 11:53:26;;;;;;;;;0.00;0.00;;;;;21.61;39.75;101269.50;5108850;27;45271;-81
2022/05/25 11:56:26;;;;;;;;;0.00;0.00;;;;;21.30;39.73;101222.28;5088995;27;47441;-81
2022/05/25 11:58:51;;;;;;;;;0.00;0.00;;;;;21.80;39.44;101264.97;5103285;27;45091;-81
2022/05/25 12:01:48;;;;;;;;;0.00;0.00;;;;;21.77;39.50;101261.41;5131585;27;44994;-81
2022/05/25 12:04:53;;;;;;;;;1.00;1.00;;;;;21.77;38.68;101282.81;5112962;27;45029;-80
2022/05/25 12:07:31;;;;;;;;;0.00;0.00;;;;;21.59;38.40;101267.72;5132836;27;45237;-81
2022/05/25 12:10:13;;;;;;;;;0.00;0.00;;;;;21.41;38.66;101276.66;5128868;27;45185;-81
2022/05/25 12:12:47;;;;;;;;;1.00;0.00;;;;;21.29;38.94;101272.22;5092912;27;45075;-81
2022/05/25 12:15:21;;;;;;;;;0.00;0.00;;;;;21.31;39.76;101277.56;5092789;27;45223;-82